Wetterstation Rottenburg Seebronn / 442m msl / http://mut-lambrecht.de
LETZTE AKTUALISIERUNG UM: 12:05 DATUM: April 24 2018, time of next update: 12:10
Aktuelles Wettermostly cloudy Aktuelle Temperatur 18.5°C (65.3°F) (Hitze-Index 18.5°C ), Apparent temp 17.3°C
Höchsttemperatur (seit Mitternacht)18.5°C um: 11:57 Tiefsttemperatur (seit Mitternacht)9.9°C um: 04:21
Windgeschwindigkeit (10 Minuten )11.1 kmh (6.0 kts) Windrichtung (Dir) (10 Minuten )W (274°)
Windchill Temperatur 18.5°C Windspitzen (letzte Std)22.0 kmh (11.9 kts) um: 11:47
Windspitzen (seit Mitternacht)22.8 kmh (12.3 kts) um: 09:59 Höchstes Windmittel / Minute (seit Mitternacht)13.1 kmh (7.1 kts) um: 11:01
Regenmenge (letzte Std)0.0 mm Regenmenge (seit Mitternacht)0.0 mm (0.00 in.)---
Regenmenge diesen Monat 33.2 mm (1.31 in.) Regenmenge seit Jahresbeginn 168.2 mm (6.62 in.)
Höchste Regenmenge pro Minute (letzte Std)0.0 mm/min Höchste Regenmenge pro Stunde (letzte 6 Std)0.0 mm/stunde
Regenmenge Gestern 2.1 mm Taupunkt 11.1°C (Wet Bulb :14.4°C )
Luftfeuchtigkeit 62 %, Humidex 20.3°C Aktueller Luftdruck (auf Meereshöhe bezogen)1020.7 hPa
Luftdrucktendenz 0.1 hPa (letzte Std) Trend (letzte 1 Std)gleichbleibend
Luftdrucktendenz (letzte 12 Std)+0.8 hPa Luftdrucktendenz (letzte 6 Std)+1.3 hPa



Weather report/warning/Metars

Stuttgart-Echterdingen, Germany (EDDS) 48-41N 009-13E 391M
Apr 24, 2018 - 05:50 AM EDT / 2018.04.24 0950 UTC
Wind: from the SW (230 degrees) at 9 MPH (8 KT) (direction variable):0
Visibility: greater than 7 mile(s):0
Sky conditions: mostly cloudy
Temperature: 64 F (18 C)
Dew Point: 50 F (10 C)
Relative Humidity: 59%
Pressure (altimeter): 30.09 in. Hg (1019 hPa)
ob: EDDS 240950Z 23008KT 170V280 9999 BKN036 BKN300 18/10 Q1019 NOSIG
cycle: 10
Karlsruhe, Baden Wurttemberg, Germany (EDSB) 48-46-43N 008-04-47E
Apr 24, 2018 - 05:50 AM EDT / 2018.04.24 0950 UTC
Wind: from the W (260 degrees) at 7 MPH (6 KT) (direction variable):0
Visibility: greater than 7 mile(s):0
Sky conditions: mostly clear
Temperature: 66 F (19 C)
Dew Point: 53 F (12 C)
Relative Humidity: 63%
Pressure (altimeter): 30.09 in. Hg (1019 hPa)
ob: EDSB 240950Z 26006KT 200V310 9999 FEW034 19/12 Q1019
cycle: 10
Lahr, CAN-AFB, Germany (EDTL) 48-22-09N 007-49-40E
Apr 24, 2018 - 05:50 AM EDT / 2018.04.24 0950 UTC
Wind: from the WSW (250 degrees) at 7 MPH (6 KT) (direction variable):0
Visibility: greater than 7 mile(s):0
Temperature: 64 F (18 C)
Dew Point: 51 F (11 C)
Relative Humidity: 63%
Pressure (altimeter): 30.12 in. Hg (1020 hPa)
ob: EDTL 240950Z 25006KT 220V280 CAVOK 18/11 Q1020
cycle: 10
Laupheim, Germany (ETHL) 48-13N 009-55E 550M
Apr 24, 2018 - 05:20 AM EDT / 2018.04.24 0920 UTC
Wind: from the W (260 degrees) at 12 MPH (10 KT):0
Visibility: greater than 7 mile(s):0
Sky conditions: mostly cloudy
Temperature: 60 F (16 C)
Dew Point: 48 F (9 C)
Relative Humidity: 63%
Pressure (altimeter): 30.12 in. Hg (1020 hPa)
ob: ETHL 240920Z 26010KT 9999 SCT034 BKN230 16/09 Q1020 BLU+BLU+TEMPO BLU
cycle: 9


Klicken Sie hier, um zu den Durchschnitts-, Extrem-, Monats- oder Tageswerten zu gelangen


Die Wetterdaten werden alle 5 Minuten aktualisiert.
Die 3 stündige Echtzeitgrafik wird jede Minute aktualisiert.
Bei der 3 stündige Echtzeitgrafik sind derzeit die Skalenfarben von Winddurchschnitt u. Windböen vertauscht. (Softwarebug)

Drücken Sie gegebenenfalls auf "Aktualisieren" in Ihrem Browser, um die aktuellsten Daten zu erhalten.